Time;durP1;ratioP1;P1;durP2;ratioP2;P2;SDS_P1;SDS_P2;PMS_P1;PMS_P2;Temp;Humidity;BMP_temperature;BMP_pressure;BME280_temperature;BME280_humidity;BME280_pressure;Samples;Min_cycle;Max_cycle;Signal;HPM_P1;HPM_P2
2022/06/26 00:00:32;;;;;;;;;;;;;;;27.09;41.88;98619.31;2083705;28;20628;-51
2022/06/26 00:01:33;;;;;;;;;;;;;;;27.11;41.55;98622.59;2083594;28;19971;-54
2022/06/26 00:02:34;;;;;;;;;;;;;;;27.10;41.74;98617.41;2082558;28;20043;-55
2022/06/26 00:03:36;;;;;;;;;;;;;;;27.08;41.27;98616.84;2080301;28;19996;-56
2022/06/26 00:04:36;;;;;;;;;;;;;;;27.11;41.52;98619.06;2084789;28;20259;-53
2022/06/26 00:05:39;;;;;;;;;;;;;;;27.09;41.38;98621.22;2082623;28;19972;-54
2022/06/26 00:06:40;;;;;;;;;;;;;;;27.08;41.40;98619.56;2082072;28;20041;-55
2022/06/26 00:07:42;;;;;;;;;;;;;;;27.09;40.96;98619.31;2082888;28;19929;-53
2022/06/26 00:08:43;;;;;;;;;;;;;;;27.07;41.25;98616.03;2081120;28;19947;-53
2022/06/26 00:09:44;;;;;;;;;;;;;;;27.05;40.97;98617.38;2084048;28;20015;-54
2022/06/26 00:10:46;;;;;;;;;;;;;;;27.05;40.74;98617.38;2083624;28;19925;-56
2022/06/26 00:11:47;;;;;;;;;;;;;;;27.05;40.84;98622.81;2083384;28;19934;-55
2022/06/26 00:12:48;;;;;;;;;;;;;;;27.04;41.20;98623.91;2080072;28;20431;-55
2022/06/26 00:13:50;;;;;;;;;;;;;;;27.01;41.36;98610.81;2081915;28;19928;-55
2022/06/26 00:14:50;;;;;;;;;;;;;;;26.99;40.93;98623.84;2082956;28;19932;-55
2022/06/26 00:15:52;;;;;;;;;;;;;;;26.99;41.01;98618.41;2079361;28;20471;-53
2022/06/26 00:16:52;;;;;;;;;;;;;;;26.96;40.94;98615.13;2081690;28;19928;-52
2022/06/26 00:17:54;;;;;;;;;;;;;;;26.96;40.98;98620.56;2078755;28;19975;-54
2022/06/26 00:18:56;;;;;;;;;;;;;;;26.95;40.87;98620.84;2080578;28;19925;-52
2022/06/26 00:19:57;;;;;;;;;;;;;;;26.90;41.20;98624.31;2082859;28;19955;-55
2022/06/26 00:20:59;;;;;;;;;;;;;;;26.87;40.91;98619.41;2083244;28;20398;-53
2022/06/26 00:22:05;;;;;;;;;;;;;;;26.86;41.06;98619.66;2082960;28;19925;-53
2022/06/26 00:23:06;;;;;;;;;;;;;;;26.85;40.75;98618.81;2083303;28;20271;-55
2022/06/26 00:24:07;;;;;;;;;;;;;;;26.85;40.97;98623.44;2082376;28;19947;-54
2022/06/26 00:25:09;;;;;;;;;;;;;;;26.83;40.43;98628.31;2081830;28;19929;-52
2022/06/26 00:26:10;;;;;;;;;;;;;;;26.83;40.60;98626.44;2082700;28;22153;-55
2022/06/26 00:27:11;;;;;;;;;;;;;;;26.83;40.69;98622.88;2083352;28;19940;-56
2022/06/26 00:28:13;;;;;;;;;;;;;;;26.82;40.38;98622.06;2078270;28;20995;-56
2022/06/26 00:29:14;;;;;;;;;;;;;;;26.82;40.39;98623.97;2081454;28;20456;-52
2022/06/26 00:30:15;;;;;;;;;;;;;;;26.82;40.51;98632.13;2081554;28;19928;-55
2022/06/26 00:31:16;;;;;;;;;;;;;;;26.77;40.75;98632.09;2083581;28;19932;-55
2022/06/26 00:32:18;;;;;;;;;;;;;;;26.78;40.70;98634.56;2084466;28;19928;-53
2022/06/26 00:33:18;;;;;;;;;;;;;;;26.78;40.71;98634.56;2083081;28;19940;-53
2022/06/26 00:34:20;;;;;;;;;;;;;;;26.79;40.53;98629.94;2081239;28;20512;-56
2022/06/26 00:35:21;;;;;;;;;;;;;;;26.79;40.74;98635.38;2081723;28;20836;-55
2022/06/26 00:36:24;;;;;;;;;;;;;;;26.78;40.83;98631.84;2082154;28;20021;-53
2022/06/26 00:37:24;;;;;;;;;;;;;;;26.77;40.50;98627.44;2081638;28;20512;-56
2022/06/26 00:38:26;;;;;;;;;;;;;;;26.75;40.49;98626.91;2081102;28;19925;-56
2022/06/26 00:39:26;;;;;;;;;;;;;;;26.74;40.73;98633.41;2080981;28;19928;-54
2022/06/26 00:40:28;;;;;;;;;;;;;;;26.69;40.76;98630.63;2082072;28;19975;-54
2022/06/26 00:41:28;;;;;;;;;;;;;;;26.70;40.67;98630.41;2080785;28;19921;-55
2022/06/26 00:42:30;;;;;;;;;;;;;;;26.68;40.87;98631.72;2078904;28;19935;-53
2022/06/26 00:43:31;;;;;;;;;;;;;;;26.69;40.97;98633.34;2076260;28;19929;-55
2022/06/26 00:44:32;;;;;;;;;;;;;;;26.68;40.32;98637.16;2081398;28;19955;-54
2022/06/26 00:45:33;;;;;;;;;;;;;;;26.68;40.25;98629.00;2077600;28;19935;-53
2022/06/26 00:46:34;;;;;;;;;;;;;;;26.67;40.63;98627.38;2076824;28;19935;-56
2022/06/26 00:47:35;;;;;;;;;;;;;;;26.68;40.72;98623.56;2069867;28;19928;-53
2022/06/26 00:48:36;;;;;;;;;;;;;;;26.69;40.56;98625.19;2080147;28;19947;-55
2022/06/26 00:49:37;;;;;;;;;;;;;;;26.68;40.61;98623.56;2076696;28;20371;-55
2022/06/26 00:50:39;;;;;;;;;;;;;;;26.64;40.46;98625.16;2081549;28;20043;-53
2022/06/26 00:51:43;;;;;;;;;;;;;;;26.62;40.57;98619.97;2083733;28;19936;-55
2022/06/26 00:52:45;;;;;;;;;;;;;;;26.62;40.59;98624.59;2082335;28;19925;-56
2022/06/26 00:53:46;;;;;;;;;;;;;;;26.62;40.34;98624.59;2079338;28;19936;-54
2022/06/26 00:54:49;;;;;;;;;;;;;;;26.61;40.58;98618.34;2081461;28;20047;-56
2022/06/26 00:55:50;;;;;;;;;;;;;;;26.61;40.24;98618.34;2080778;28;19936;-54
2022/06/26 00:56:51;;;;;;;;;;;;;;;26.58;40.29;98626.16;2080759;28;19956;-56
2022/06/26 00:57:52;;;;;;;;;;;;;;;26.57;40.59;98622.63;2079516;28;19939;-56
2022/06/26 00:58:54;;;;;;;;;;;;;;;26.58;40.43;98626.16;2080390;28;19929;-53
2022/06/26 00:59:55;;;;;;;;;;;;;;;26.56;40.38;98622.91;2081894;28;20650;-53
2022/06/26 01:00:57;;;;;;;;;;;;;;;26.56;40.45;98618.28;2080904;28;19990;-55
2022/06/26 01:01:57;;;;;;;;;;;;;;;26.55;40.37;98621.25;2079903;28;19956;-56
2022/06/26 01:02:59;;;;;;;;;;;;;;;26.54;40.69;98616.91;2081837;28;20633;-55
2022/06/26 01:03:59;;;;;;;;;;;;;;;26.55;40.33;98618.53;2079408;28;19925;-55
2022/06/26 01:05:01;;;;;;;;;;;;;;;26.52;40.11;98614.41;2082258;28;19925;-55
2022/06/26 01:06:03;;;;;;;;;;;;;;;26.50;40.09;98620.13;2081590;28;19929;-56
2022/06/26 01:07:07;;;;;;;;;;;;;;;26.53;40.54;98621.53;2081678;28;19928;-53
2022/06/26 01:08:08;;;;;;;;;;;;;;;26.50;40.04;98617.41;2080002;28;19932;-53
2022/06/26 01:09:10;;;;;;;;;;;;;;;26.50;40.47;98613.84;2080259;28;19933;-54
2022/06/26 01:10:11;;;;;;;;;;;;;;;26.49;40.06;98614.91;2082957;28;19929;-52
2022/06/26 01:11:18;;;;;;;;;;;;;;;26.50;40.14;98611.97;2083271;28;19939;-56
2022/06/26 01:12:19;;;;;;;;;;;;;;;26.52;40.02;98619.84;2081493;28;20421;-55
2022/06/26 01:13:20;;;;;;;;;;;;;;;26.49;40.29;98615.75;2075809;28;19940;-53
2022/06/26 01:14:21;;;;;;;;;;;;;;;26.46;39.99;98616.22;2081646;28;19925;-54
2022/06/26 01:15:23;;;;;;;;;;;;;;;26.47;40.26;98619.78;2083121;28;19925;-54
2022/06/26 01:16:24;;;;;;;;;;;;;;;26.46;40.30;98616.22;2075988;28;19929;-55
2022/06/26 01:17:25;;;;;;;;;;;;;;;26.45;40.01;98616.50;2082816;28;20022;-53
2022/06/26 01:18:26;;;;;;;;;;;;;;;26.42;40.38;98620.56;2079522;28;20318;-55
2022/06/26 01:19:28;;;;;;;;;;;;;;;26.43;40.35;98614.03;2082790;28;19929;-52
2022/06/26 01:20:29;;;;;;;;;;;;;;;26.42;40.21;98615.13;2079660;28;19932;-51
2022/06/26 01:21:30;;;;;;;;;;;;;;;26.42;40.08;98623.28;2080636;28;19929;-53
2022/06/26 01:22:32;;;;;;;;;;;;;;;26.44;40.20;98617.56;2080599;28;19928;-50
2022/06/26 01:23:34;;;;;;;;;;;;;;;26.44;40.38;98614.84;2081743;28;19973;-51
2022/06/26 01:24:34;;;;;;;;;;;;;;;26.42;40.03;98615.13;2080711;28;20021;-54
2022/06/26 01:25:43;;;;;;;;;;;;;;;26.42;40.26;98612.41;2083246;28;19985;-50
2022/06/26 01:26:44;;;;;;;;;;;;;;;26.39;40.30;98614.81;2078898;28;19933;-51
2022/06/26 01:27:45;;;;;;;;;;;;;;;26.39;40.01;98609.38;2082139;28;19940;-52
2022/06/26 01:28:46;;;;;;;;;;;;;;;26.38;40.18;98611.25;2075113;28;20504;-53
2022/06/26 01:29:47;;;;;;;;;;;;;;;26.39;39.96;98606.66;2080864;28;19935;-50
2022/06/26 01:30:48;;;;;;;;;;;;;;;26.35;39.75;98598.16;2072402;28;19940;-54
2022/06/26 01:31:50;;;;;;;;;;;;;;;26.37;39.91;98603.34;2077521;28;19925;-52
2022/06/26 01:32:50;;;;;;;;;;;;;;;26.37;39.88;98606.09;2080265;28;19925;-53
2022/06/26 01:33:52;;;;;;;;;;;;;;;26.35;40.36;98608.22;2082000;28;19929;-53
2022/06/26 01:34:52;;;;;;;;;;;;;;;26.37;40.13;98600.66;2076692;28;20524;-53
2022/06/26 01:35:54;;;;;;;;;;;;;;;26.35;40.13;98592.72;2078895;28;19931;-51
2022/06/26 01:36:55;;;;;;;;;;;;;;;26.35;40.27;98595.44;2075875;28;19928;-53
2022/06/26 01:38:07;;;;;;;;;;;;;;;26.36;40.04;98607.97;2080942;28;20019;-51
2022/06/26 01:39:08;;;;;;;;;;;;;;;26.32;40.33;98592.44;2078853;28;19932;-52
2022/06/26 01:40:10;;;;;;;;;;;;;;;26.32;40.38;98603.31;2079904;28;20056;-52
2022/06/26 01:41:11;;;;;;;;;;;;;;;26.29;39.81;98601.91;2080956;28;19932;-52
2022/06/26 01:42:12;;;;;;;;;;;;;;;26.29;40.18;98600.00;2081112;28;19931;-52
2022/06/26 01:43:14;;;;;;;;;;;;;;;26.30;40.06;98596.22;2080149;28;19929;-50
2022/06/26 01:44:16;;;;;;;;;;;;;;;26.28;40.19;98592.13;2072683;28;19983;-50
2022/06/26 01:45:16;;;;;;;;;;;;;;;26.27;40.32;98596.75;2077383;28;20452;-51
2022/06/26 01:46:19;;;;;;;;;;;;;;;26.26;40.23;98594.25;2080724;28;19925;-53
2022/06/26 01:47:19;;;;;;;;;;;;;;;26.29;39.74;98599.19;2080237;28;19935;-52
2022/06/26 01:48:21;;;;;;;;;;;;;;;26.28;40.05;98592.13;2081574;28;19925;-53
2022/06/26 01:49:25;;;;;;;;;;;;;;;26.28;40.15;98590.22;2081399;28;19995;-53
2022/06/26 01:50:27;;;;;;;;;;;;;;;26.26;40.16;98595.09;2078884;28;20015;-53
2022/06/26 01:51:28;;;;;;;;;;;;;;;26.26;40.09;98591.53;2081889;28;19928;-52
2022/06/26 01:52:29;;;;;;;;;;;;;;;26.26;39.84;98597.00;2081025;28;20011;-52
2022/06/26 01:53:31;;;;;;;;;;;;;;;26.26;40.09;98594.25;2080099;28;19932;-51
2022/06/26 01:54:33;;;;;;;;;;;;;;;26.25;39.91;98581.75;2080124;28;19961;-52
2022/06/26 01:55:33;;;;;;;;;;;;;;;26.27;39.71;98594.03;2081439;28;19932;-51
2022/06/26 01:56:35;;;;;;;;;;;;;;;26.26;39.87;98589.66;2080342;28;19975;-54
2022/06/26 01:57:35;;;;;;;;;;;;;;;26.23;39.93;98584.72;2079548;28;19939;-50
2022/06/26 01:58:37;;;;;;;;;;;;;;;26.24;40.23;98597.25;2080152;28;19925;-51
2022/06/26 01:59:38;;;;;;;;;;;;;;;26.27;39.98;98585.03;2077227;28;20569;-53
2022/06/26 02:00:40;;;;;;;;;;;;;;;26.24;40.27;98582.81;2080477;28;20000;-53
2022/06/26 02:01:41;;;;;;;;;;;;;;;26.24;40.19;98588.25;2078254;28;19932;-51
2022/06/26 02:02:43;;;;;;;;;;;;;;;26.24;39.85;98585.53;2078748;28;20007;-52
2022/06/26 02:03:43;;;;;;;;;;;;;;;26.25;40.05;98587.19;2081977;28;19932;-52
2022/06/26 02:04:45;;;;;;;;;;;;;;;26.21;39.84;98584.16;2080831;28;19928;-51
2022/06/26 02:05:45;;;;;;;;;;;;;;;26.22;39.84;98588.53;2078759;28;20260;-51
2022/06/26 02:06:47;;;;;;;;;;;;;;;26.24;39.83;98588.25;2078982;28;19932;-53
2022/06/26 02:07:47;;;;;;;;;;;;;;;26.20;39.92;98585.22;2074621;28;19933;-52
2022/06/26 02:08:50;;;;;;;;;;;;;;;26.20;39.99;98581.69;2076711;28;21412;-51
2022/06/26 02:13:51;;;;;;;;;;;;;;;26.15;39.72;98577.00;2078482;28;19932;-53
2022/06/26 02:14:51;;;;;;;;;;;;;;;26.18;40.10;98576.50;2074460;28;19939;-50
2022/06/26 02:15:53;;;;;;;;;;;;;;;26.19;39.55;98578.16;2081017;28;20456;-52
2022/06/26 02:16:56;;;;;;;;;;;;;;;26.17;39.71;98576.78;2082642;28;20546;-52
2022/06/26 02:17:56;;;;;;;;;;;;;;;26.14;39.66;98580.81;2082986;28;20006;-53
2022/06/26 02:18:58;;;;;;;;;;;;;;;26.13;39.68;98573.72;2082562;28;20357;-51
2022/06/26 02:19:59;;;;;;;;;;;;;;;26.15;39.67;98581.63;2083612;28;19925;-52
2022/06/26 02:21:01;;;;;;;;;;;;;;;26.15;40.07;98582.44;2081816;28;20276;-52
2022/06/26 02:22:02;;;;;;;;;;;;;;;26.13;39.90;98575.63;2081981;28;20601;-51
2022/06/26 02:23:03;;;;;;;;;;;;;;;26.16;40.11;98577.84;2077489;28;19928;-54
2022/06/26 02:24:06;;;;;;;;;;;;;;;26.15;39.71;98581.63;2078581;28;19929;-52
2022/06/26 02:25:08;;;;;;;;;;;;;;;26.13;39.67;98579.16;2073462;28;20019;-51
2022/06/26 02:26:09;;;;;;;;;;;;;;;26.13;39.53;98586.50;2080056;28;19929;-52
2022/06/26 02:27:10;;;;;;;;;;;;;;;26.12;39.50;98582.16;2078879;28;19952;-55
2022/06/26 02:28:11;;;;;;;;;;;;;;;26.08;39.56;98585.38;2082203;28;20023;-51
2022/06/26 02:29:13;;;;;;;;;;;;;;;26.11;39.73;98586.78;2078409;28;20547;-51
2022/06/26 02:30:14;;;;;;;;;;;;;;;26.08;39.66;98588.09;2079224;28;19968;-51
2022/06/26 02:31:16;;;;;;;;;;;;;;;26.09;39.53;98599.78;2079374;28;19933;-50
2022/06/26 02:32:17;;;;;;;;;;;;;;;26.10;39.54;98589.72;2080685;28;19925;-53
2022/06/26 02:33:19;;;;;;;;;;;;;;;26.09;39.54;98583.47;2081348;28;19932;-52
2022/06/26 02:34:21;;;;;;;;;;;;;;;26.10;39.79;98587.00;2081056;28;19925;-53
2022/06/26 02:35:21;;;;;;;;;;;;;;;26.06;39.84;98595.66;2083659;28;19940;-50
2022/06/26 02:36:23;;;;;;;;;;;;;;;26.07;39.59;98597.31;2083676;28;20586;-52
2022/06/26 02:37:24;;;;;;;;;;;;;;;26.05;39.64;98593.22;2082685;28;20307;-51
2022/06/26 02:38:26;;;;;;;;;;;;;;;26.06;39.91;98592.97;2084329;28;19929;-52
2022/06/26 02:39:28;;;;;;;;;;;;;;;26.04;39.95;98597.00;2083644;28;19929;-52
2022/06/26 02:40:30;;;;;;;;;;;;;;;26.04;39.62;98594.28;2083695;28;19929;-53
2022/06/26 02:41:31;;;;;;;;;;;;;;;26.04;39.80;98597.81;2085118;28;19936;-53
2022/06/26 02:42:32;;;;;;;;;;;;;;;26.03;39.76;98590.75;2081654;28;19975;-53
2022/06/26 02:43:33;;;;;;;;;;;;;;;26.01;39.60;98592.88;2085110;28;19924;-50
2022/06/26 02:44:35;;;;;;;;;;;;;;;26.04;39.49;98597.00;2079591;28;20016;-54
2022/06/26 02:45:36;;;;;;;;;;;;;;;26.05;39.78;98596.75;2081996;28;19924;-57
2022/06/26 02:46:37;;;;;;;;;;;;;;;26.03;39.80;98596.19;2080515;28;19955;-54
2022/06/26 02:47:38;;;;;;;;;;;;;;;26.02;39.60;98600.00;2075622;28;19933;-57
2022/06/26 02:48:40;;;;;;;;;;;;;;;25.99;39.76;98605.94;2080440;28;20030;-56
2022/06/26 02:49:40;;;;;;;;;;;;;;;25.98;39.88;98598.84;2083007;28;21297;-57
2022/06/26 02:50:42;;;;;;;;;;;;;;;25.97;39.46;98599.09;2082884;28;20025;-55
2022/06/26 02:51:42;;;;;;;;;;;;;;;25.98;39.83;98603.44;2082173;28;19924;-55
2022/06/26 02:52:44;;;;;;;;;;;;;;;25.96;39.52;98603.69;2083066;28;19929;-53
2022/06/26 02:53:46;;;;;;;;;;;;;;;25.97;39.46;98604.53;2079126;28;20302;-55
2022/06/26 02:54:49;;;;;;;;;;;;;;;26.02;39.40;98605.41;2080283;28;19928;-56
2022/06/26 02:55:49;;;;;;;;;;;;;;;25.98;39.53;98604.28;2081566;28;20015;-52
2022/06/26 02:56:51;;;;;;;;;;;;;;;25.98;39.61;98603.44;2083338;28;19929;-55
2022/06/26 02:57:51;;;;;;;;;;;;;;;25.99;39.66;98605.94;2082269;28;19925;-53
2022/06/26 02:58:53;;;;;;;;;;;;;;;25.96;39.71;98606.41;2082755;28;19924;-54
2022/06/26 02:59:54;;;;;;;;;;;;;;;25.97;39.44;98613.50;2077501;28;19936;-56
2022/06/26 03:00:55;;;;;;;;;;;;;;;25.95;39.52;98610.22;2080428;28;19996;-56
2022/06/26 03:01:57;;;;;;;;;;;;;;;25.95;39.81;98607.50;2082352;28;20426;-54
2022/06/26 03:03:01;;;;;;;;;;;;;;;25.95;39.77;98607.50;2083238;28;19960;-54
2022/06/26 03:04:02;;;;;;;;;;;;;;;25.95;39.50;98604.78;2081612;28;19959;-53
2022/06/26 03:05:03;;;;;;;;;;;;;;;25.93;39.54;98606.91;2083226;28;19928;-57
2022/06/26 03:06:05;;;;;;;;;;;;;;;25.93;39.77;98606.91;2078589;28;20353;-50
2022/06/26 03:07:05;;;;;;;;;;;;;;;25.94;39.63;98602.31;2079860;28;19928;-53
2022/06/26 03:08:07;;;;;;;;;;;;;;;25.92;39.38;98607.19;2082760;28;19935;-53
2022/06/26 03:09:07;;;;;;;;;;;;;;;25.92;39.65;98601.75;2082990;28;19932;-52
2022/06/26 03:10:11;;;;;;;;;;;;;;;25.92;39.35;98607.19;2083130;28;20484;-54
2022/06/26 03:11:12;;;;;;;;;;;;;;;25.89;39.34;98605.78;2082011;28;19924;-53
2022/06/26 03:12:13;;;;;;;;;;;;;;;25.87;39.53;98602.50;2082696;28;20235;-53
2022/06/26 03:13:14;;;;;;;;;;;;;;;25.89;39.64;98607.69;2079706;28;19939;-52
2022/06/26 03:14:15;;;;;;;;;;;;;;;25.89;39.60;98605.78;2074219;28;20035;-51
2022/06/26 03:15:16;;;;;;;;;;;;;;;25.89;39.36;98605.78;2081300;28;19932;-53
2022/06/26 03:16:18;;;;;;;;;;;;;;;25.87;39.30;98605.22;2082067;28;20350;-52
2022/06/26 03:17:19;;;;;;;;;;;;;;;25.88;39.36;98601.41;2082309;28;20520;-52
2022/06/26 03:18:20;;;;;;;;;;;;;;;25.90;39.40;98610.13;2079399;28;19940;-50
2022/06/26 03:19:21;;;;;;;;;;;;;;;25.88;39.28;98606.84;2080939;28;19925;-51
2022/06/26 03:20:22;;;;;;;;;;;;;;;25.87;39.64;98604.41;2082480;28;19929;-50
2022/06/26 03:21:23;;;;;;;;;;;;;;;25.87;39.68;98607.13;2083530;28;19925;-53
2022/06/26 03:22:24;;;;;;;;;;;;;;;25.85;39.79;98604.63;2084690;28;19936;-52
2022/06/26 03:24:01;;;;;;;;;;;;;;;25.82;39.58;98602.41;2085237;28;19936;-52
2022/06/26 03:24:47;;;;;;;;;;;;;;;25.82;39.19;98607.81;2082234;28;20055;-53
2022/06/26 03:25:50;;;;;;;;;;;;;;;25.83;39.38;98612.25;2083125;28;19940;-51
2022/06/26 03:26:51;;;;;;;;;;;;;;;25.84;39.17;98608.44;2082410;28;19941;-52
2022/06/26 03:27:52;;;;;;;;;;;;;;;25.83;39.56;98602.19;2080353;28;19935;-51
2022/06/26 03:28:53;;;;;;;;;;;;;;;25.82;39.48;98605.09;2079620;28;19955;-50
2022/06/26 03:29:55;;;;;;;;;;;;;;;25.83;39.53;98601.38;2080409;28;19924;-53
2022/06/26 03:30:55;;;;;;;;;;;;;;;25.81;39.54;98607.00;2083038;28;19929;-56
2022/06/26 03:31:57;;;;;;;;;;;;;;;25.82;39.45;98611.34;2083558;28;19939;-53
2022/06/26 03:32:57;;;;;;;;;;;;;;;25.81;39.52;98600.75;2082603;28;19929;-51
2022/06/26 03:33:59;;;;;;;;;;;;;;;25.81;39.12;98607.00;2081623;28;19951;-53
2022/06/26 03:34:59;;;;;;;;;;;;;;;25.79;39.46;98605.63;2083294;28;19936;-51
2022/06/26 03:36:01;;;;;;;;;;;;;;;25.78;39.10;98607.53;2082996;28;19925;-52
2022/06/26 03:37:03;;;;;;;;;;;;;;;25.79;39.40;98611.88;2083542;28;19932;-51
2022/06/26 03:38:03;;;;;;;;;;;;;;;25.80;39.41;98605.38;2083803;28;19933;-52
2022/06/26 03:39:05;;;;;;;;;;;;;;;25.80;39.61;98612.72;2082196;28;19931;-52
2022/06/26 03:40:06;;;;;;;;;;;;;;;25.79;39.57;98603.72;2082664;28;19933;-52
2022/06/26 03:41:10;;;;;;;;;;;;;;;25.80;39.34;98601.84;2082920;28;19986;-51
2022/06/26 03:42:10;;;;;;;;;;;;;;;25.77;39.76;98602.31;2079898;28;20564;-53
2022/06/26 03:43:12;;;;;;;;;;;;;;;25.79;39.63;98605.63;2080450;28;19928;-53
2022/06/26 03:44:12;;;;;;;;;;;;;;;25.74;39.54;98600.13;2081485;28;19925;-51
2022/06/26 03:45:14;;;;;;;;;;;;;;;25.76;39.56;98608.84;2078812;28;20426;-54
2022/06/26 03:46:15;;;;;;;;;;;;;;;25.77;39.42;98603.16;2082587;28;19936;-53
2022/06/26 03:47:16;;;;;;;;;;;;;;;25.78;39.09;98604.81;2082785;28;19932;-51
2022/06/26 03:48:17;;;;;;;;;;;;;;;25.73;39.02;98602.00;2083367;28;20407;-51
2022/06/26 03:49:19;;;;;;;;;;;;;;;25.74;39.52;98611.81;2082846;28;20050;-52
2022/06/26 03:50:20;;;;;;;;;;;;;;;25.72;39.37;98611.25;2081101;28;20440;-54
2022/06/26 03:51:21;;;;;;;;;;;;;;;25.76;39.13;98617.00;2083220;28;19928;-53
2022/06/26 03:52:23;;;;;;;;;;;;;;;25.74;39.07;98616.41;2081317;28;19951;-52
2022/06/26 03:53:24;;;;;;;;;;;;;;;25.74;39.07;98616.41;2080662;28;19936;-50
2022/06/26 03:54:26;;;;;;;;;;;;;;;25.73;39.38;98621.03;2079788;28;19958;-51
2022/06/26 03:55:27;;;;;;;;;;;;;;;25.75;39.34;98616.16;2080074;28;19929;-53
2022/06/26 03:56:30;;;;;;;;;;;;;;;25.75;39.40;98624.31;2078499;28;19955;-52
2022/06/26 03:57:31;;;;;;;;;;;;;;;25.72;39.02;98621.28;2082392;28;19929;-52
2022/06/26 03:58:33;;;;;;;;;;;;;;;25.72;39.38;98619.41;2081063;28;19925;-53
2022/06/26 03:59:34;;;;;;;;;;;;;;;25.72;39.07;98626.72;2080723;28;20252;-52
2022/06/26 04:00:36;;;;;;;;;;;;;;;25.72;39.43;98626.72;2080125;28;20004;-54
2022/06/26 04:01:36;;;;;;;;;;;;;;;25.73;39.44;98625.66;2084390;28;20514;-52
2022/06/26 04:02:39;;;;;;;;;;;;;;;25.69;39.25;98622.63;2081138;28;19932;-52
2022/06/26 04:03:39;;;;;;;;;;;;;;;25.69;39.35;98627.22;2084697;28;20466;-53
2022/06/26 04:04:41;;;;;;;;;;;;;;;25.64;39.28;98627.97;2080035;28;19936;-52
2022/06/26 04:05:42;;;;;;;;;;;;;;;25.68;39.34;98625.56;2084300;28;19982;-52
2022/06/26 04:06:43;;;;;;;;;;;;;;;25.69;39.24;98616.38;2082236;28;19986;-53
2022/06/26 04:07:44;;;;;;;;;;;;;;;25.69;39.42;98627.22;2084135;28;19943;-54
2022/06/26 04:08:47;;;;;;;;;;;;;;;25.70;39.40;98626.97;2080914;28;20411;-52
2022/06/26 04:09:48;;;;;;;;;;;;;;;25.69;39.10;98624.50;2081700;28;19925;-53
2022/06/26 04:10:50;;;;;;;;;;;;;;;25.69;39.54;98621.81;2081998;28;20389;-51
2022/06/26 04:11:52;;;;;;;;;;;;;;;25.66;39.51;98625.00;2078200;28;19964;-53
2022/06/26 04:12:53;;;;;;;;;;;;;;;25.68;39.35;98628.28;2079487;28;20491;-52
2022/06/26 04:13:54;;;;;;;;;;;;;;;25.66;39.46;98620.41;2077935;28;20047;-52
2022/06/26 04:14:55;;;;;;;;;;;;;;;25.67;39.18;98619.31;2081578;28;21907;-54
2022/06/26 04:15:56;;;;;;;;;;;;;;;25.66;39.13;98620.41;2084146;28;20454;-53
2022/06/26 04:16:58;;;;;;;;;;;;;;;25.65;39.50;98621.44;2083225;28;19974;-52
2022/06/26 04:17:59;;;;;;;;;;;;;;;25.64;39.21;98625.25;2081690;28;19928;-52
2022/06/26 04:19:00;;;;;;;;;;;;;;;25.60;39.43;98624.94;2081975;28;19933;-52
2022/06/26 04:20:01;;;;;;;;;;;;;;;25.61;39.29;98626.56;2083203;28;19925;-51
2022/06/26 04:21:04;;;;;;;;;;;;;;;25.60;39.14;98624.09;2082952;28;19929;-50
2022/06/26 04:22:04;;;;;;;;;;;;;;;25.61;39.25;98629.28;2083421;28;19964;-53
2022/06/26 04:23:07;;;;;;;;;;;;;;;25.63;38.89;98626.31;2083404;28;19924;-53
2022/06/26 04:24:08;;;;;;;;;;;;;;;25.62;39.27;98630.09;2084539;28;19933;-53
2022/06/26 04:25:10;;;;;;;;;;;;;;;25.60;38.93;98632.25;2083772;28;20023;-54
2022/06/26 04:26:11;;;;;;;;;;;;;;;25.59;39.17;98634.13;2082563;28;19935;-52
2022/06/26 04:27:13;;;;;;;;;;;;;;;25.59;38.91;98636.03;2076595;28;19932;-53
2022/06/26 04:28:14;;;;;;;;;;;;;;;25.59;39.16;98630.59;2078369;28;19936;-53
2022/06/26 04:29:16;;;;;;;;;;;;;;;25.58;39.31;98632.50;2080918;28;20363;-53
2022/06/26 04:30:16;;;;;;;;;;;;;;;25.58;39.29;98635.22;2085033;28;19933;-51
2022/06/26 04:31:18;;;;;;;;;;;;;;;25.56;39.10;98631.09;2082640;28;19928;-53
2022/06/26 04:32:18;;;;;;;;;;;;;;;25.55;39.15;98633.00;2084269;28;19932;-51
2022/06/26 04:33:20;;;;;;;;;;;;;;;25.54;39.31;98635.97;2082330;28;19929;-52
2022/06/26 04:34:21;;;;;;;;;;;;;;;25.55;39.11;98637.63;2083297;28;19929;-52
2022/06/26 04:35:22;;;;;;;;;;;;;;;25.54;39.23;98636.78;2081285;28;19925;-53
2022/06/26 04:36:23;;;;;;;;;;;;;;;25.54;39.02;98642.22;2083501;28;19925;-50
2022/06/26 04:37:24;;;;;;;;;;;;;;;25.56;38.95;98639.25;2082277;28;20151;-51
2022/06/26 04:38:25;;;;;;;;;;;;;;;25.56;38.96;98641.97;2082763;28;19931;-50
2022/06/26 04:39:26;;;;;;;;;;;;;;;25.56;38.93;98633.81;2080166;28;20121;-52
2022/06/26 04:40:27;;;;;;;;;;;;;;;25.56;38.92;98645.50;2083232;28;19950;-54
2022/06/26 04:41:39;;;;;;;;;;;;;;;25.56;39.17;98639.25;2081936;28;19983;-52
2022/06/26 04:42:42;;;;;;;;;;;;;;;25.54;39.08;98641.38;2078048;28;20569;-51
2022/06/26 04:43:43;;;;;;;;;;;;;;;25.55;39.40;98641.16;2080227;28;19958;-53
2022/06/26 04:44:44;;;;;;;;;;;;;;;25.54;39.12;98644.94;2081616;28;19995;-54
2022/06/26 04:45:45;;;;;;;;;;;;;;;25.53;39.13;98645.19;2081352;28;19987;-53
2022/06/26 04:46:47;;;;;;;;;;;;;;;25.52;39.31;98644.38;2080382;28;19933;-52
2022/06/26 04:47:48;;;;;;;;;;;;;;;25.53;38.98;98642.47;2080337;28;20066;-53
2022/06/26 04:48:49;;;;;;;;;;;;;;;25.51;39.18;98641.91;2083097;28;20032;-53
2022/06/26 04:49:50;;;;;;;;;;;;;;;25.51;39.17;98640.00;2082749;28;20362;-52
2022/06/26 04:50:51;;;;;;;;;;;;;;;25.52;39.06;98646.25;2082701;28;19925;-52
2022/06/26 04:51:53;;;;;;;;;;;;;;;25.52;39.20;98655.22;2082490;28;19936;-50
2022/06/26 04:52:53;;;;;;;;;;;;;;;25.51;39.15;98648.13;2081124;28;20542;-52
2022/06/26 04:53:55;;;;;;;;;;;;;;;25.51;38.91;98645.44;2076643;28;19935;-54
2022/06/26 04:54:56;;;;;;;;;;;;;;;25.51;38.88;98653.56;2078886;28;20291;-51
2022/06/26 04:55:57;;;;;;;;;;;;;;;25.49;39.19;98644.88;2082852;28;19975;-53
2022/06/26 04:56:58;;;;;;;;;;;;;;;25.49;38.92;98646.75;2079650;28;20467;-52
2022/06/26 04:58:01;;;;;;;;;;;;;;;25.49;38.99;98649.47;2075708;28;19941;-53
2022/06/26 04:59:02;;;;;;;;;;;;;;;25.49;38.95;98650.31;2082486;28;19932;-53
2022/06/26 05:00:04;;;;;;;;;;;;;;;25.46;38.97;98642.63;2082510;28;19983;-53
2022/06/26 05:01:05;;;;;;;;;;;;;;;25.47;39.10;98640.75;2080153;28;19933;-50
2022/06/26 05:02:07;;;;;;;;;;;;;;;25.48;39.20;98635.06;2082975;28;19928;-52
2022/06/26 05:03:07;;;;;;;;;;;;;;;25.47;39.24;98640.75;2081451;28;19929;-53
2022/06/26 05:04:09;;;;;;;;;;;;;;;25.46;38.90;98636.38;2082482;28;19933;-53
2022/06/26 05:05:09;;;;;;;;;;;;;;;25.46;38.88;98639.91;2080962;28;19933;-51
2022/06/26 05:06:11;;;;;;;;;;;;;;;25.48;38.83;98642.41;2083081;28;19936;-51
2022/06/26 05:07:12;;;;;;;;;;;;;;;25.47;39.20;98638.88;2081534;28;20560;-51
2022/06/26 05:08:13;;;;;;;;;;;;;;;25.46;39.10;98642.63;2082937;28;19939;-50
2022/06/26 05:09:14;;;;;;;;;;;;;;;25.43;39.18;98643.13;2084263;28;19928;-53
2022/06/26 05:10:16;;;;;;;;;;;;;;;25.43;38.75;98640.41;2084695;28;19975;-50
2022/06/26 05:11:16;;;;;;;;;;;;;;;25.45;39.10;98641.00;2082275;28;19935;-53
2022/06/26 05:12:18;;;;;;;;;;;;;;;25.45;39.21;98646.44;2080445;28;19939;-52
2022/06/26 05:13:20;;;;;;;;;;;;;;;25.43;39.24;98643.13;2078035;28;19924;-50
2022/06/26 05:14:21;;;;;;;;;;;;;;;25.46;38.94;98639.09;2081736;28;20484;-52
2022/06/26 05:15:22;;;;;;;;;;;;;;;25.45;38.88;98646.44;2080447;28;19948;-51
2022/06/26 05:16:24;;;;;;;;;;;;;;;25.47;38.78;98643.47;2082963;28;19929;-50
2022/06/26 05:17:24;;;;;;;;;;;;;;;25.44;38.80;98646.69;2081240;28;19936;-51
2022/06/26 05:18:26;;;;;;;;;;;;;;;25.44;38.99;98644.78;2081646;28;19931;-52
2022/06/26 05:19:26;;;;;;;;;;;;;;;25.45;38.92;98643.72;2082588;28;19936;-53
2022/06/26 05:20:28;;;;;;;;;;;;;;;25.46;38.85;98652.66;2081034;28;19972;-49
2022/06/26 05:21:29;;;;;;;;;;;;;;;25.46;38.75;98649.97;2081312;28;19929;-52
2022/06/26 05:22:30;;;;;;;;;;;;;;;25.45;38.92;98653.75;2082612;28;19928;-51
2022/06/26 05:23:31;;;;;;;;;;;;;;;25.46;39.08;98655.38;2078293;28;19936;-51
2022/06/26 05:24:33;;;;;;;;;;;;;;;25.44;38.87;98647.50;2079050;28;20901;-51